Time;durP1;ratioP1;P1;durP2;ratioP2;P2;SDS_P1;SDS_P2;PMS_P1;PMS_P2;Temp;Humidity;BMP_temperature;BMP_pressure;BME280_temperature;BME280_humidity;BME280_pressure;Samples;Min_cycle;Max_cycle;Signal;HPM_P1;HPM_P2
2022/09/21 00:01:41;;;;;;;13.00;9.73;;;8.30;99.90;;;;;;5074373;28;20199;-60
2022/09/21 00:04:10;;;;;;;13.67;9.73;;;8.20;99.90;;;;;;5073110;28;20622;-60
2022/09/21 00:06:40;;;;;;;13.43;9.33;;;8.20;99.90;;;;;;5074319;28;20678;-60
2022/09/21 00:09:11;;;;;;;16.93;10.30;;;8.10;99.90;;;;;;5074353;28;20207;-60
2022/09/21 00:11:40;;;;;;;17.37;9.77;;;8.10;99.90;;;;;;5074305;28;20246;-60
2022/09/21 00:14:11;;;;;;;16.70;9.80;;;8.00;99.90;;;;;;5085857;28;20197;-60
2022/09/21 00:16:40;;;;;;;12.73;9.60;;;8.00;99.90;;;;;;5094746;28;20294;-60
2022/09/21 00:19:09;;;;;;;19.27;10.47;;;8.00;99.90;;;;;;5093139;28;20202;-60
2022/09/21 00:21:39;;;;;;;12.33;9.03;;;7.90;99.90;;;;;;5094427;28;20284;-60
2022/09/21 00:24:08;;;;;;;16.80;9.57;;;7.90;99.90;;;;;;5092711;28;20222;-60
2022/09/21 00:26:37;;;;;;;13.67;9.50;;;7.80;99.90;;;;;;5094634;28;20641;-60
2022/09/21 00:29:05;;;;;;;13.63;10.07;;;7.80;99.90;;;;;;5074728;28;20203;-60
2022/09/21 00:31:34;;;;;;;12.77;9.33;;;7.80;99.90;;;;;;5073869;28;20215;-60
2022/09/21 00:34:06;;;;;;;10.73;9.20;;;7.80;99.90;;;;;;5084920;28;20184;-60
2022/09/21 00:36:35;;;;;;;12.03;8.83;;;7.80;99.90;;;;;;5093094;28;20199;-61
2022/09/21 00:39:05;;;;;;;12.27;8.63;;;7.80;99.90;;;;;;5072195;28;20214;-60
2022/09/21 00:41:34;;;;;;;14.27;9.07;;;7.80;99.90;;;;;;5073620;28;20192;-60
2022/09/21 00:44:27;;;;;;;11.87;8.63;;;7.70;99.90;;;;;;5087655;28;20204;-60
2022/09/21 00:46:59;;;;;;;9.90;8.63;;;7.70;99.90;;;;;;5073430;28;20270;-60
2022/09/21 00:49:28;;;;;;;13.57;8.43;;;7.60;99.90;;;;;;5064231;28;20193;-60
2022/09/21 00:52:00;;;;;;;12.70;8.27;;;7.60;99.90;;;;;;5054052;28;20275;-60
2022/09/21 00:54:37;;;;;;;11.80;8.30;;;7.50;99.90;;;;;;5053929;28;20267;-60
2022/09/21 00:57:06;;;;;;;8.97;7.97;;;7.50;99.90;;;;;;5052187;28;20224;-61
2022/09/21 00:59:38;;;;;;;12.30;8.60;;;7.50;99.90;;;;;;5055618;28;20210;-60
2022/09/21 01:10:36;;;;;;;9.67;8.27;;;7.50;99.90;;;;;;5068263;28;20630;-60
2022/09/21 01:13:16;;;;;;;12.27;9.00;;;7.50;99.90;;;;;;5073429;28;20817;-60
2022/09/21 01:15:52;;;;;;;8.83;7.77;;;7.50;99.90;;;;;;5074343;28;20199;-60
2022/09/21 01:18:27;;;;;;;9.87;7.80;;;7.50;99.90;;;;;;5089590;28;20188;-61
2022/09/21 01:21:24;;;;;;;11.17;7.50;;;7.40;99.90;;;;;;5073163;28;20262;-60
2022/09/21 01:24:22;;;;;;;9.37;7.67;;;7.40;99.90;;;;;;5064870;28;20227;-60
2022/09/21 01:27:16;;;;;;;10.50;7.63;;;7.40;99.90;;;;;;5053323;28;20215;-60
2022/09/21 01:29:50;;;;;;;8.37;7.43;;;7.40;99.90;;;;;;5053160;28;20231;-60
2022/09/21 01:32:24;;;;;;;11.37;7.23;;;7.30;99.90;;;;;;5052007;28;20274;-60
2022/09/21 01:34:57;;;;;;;9.60;7.97;;;7.30;99.90;;;;;;5053040;28;20279;-59
2022/09/21 01:37:31;;;;;;;9.77;8.17;;;7.30;99.90;;;;;;5083103;28;20183;-60
2022/09/21 01:40:04;;;;;;;12.67;7.60;;;7.30;99.90;;;;;;5093126;28;20663;-60
2022/09/21 01:42:36;;;;;;;8.57;7.63;;;7.30;99.90;;;;;;5091974;28;20278;-60
2022/09/21 01:45:09;;;;;;;8.13;7.30;;;7.30;99.90;;;;;;5091899;28;20725;-60
2022/09/21 01:47:41;;;;;;;10.10;7.53;;;7.30;99.90;;;;;;5093139;28;20202;-60
2022/09/21 01:50:13;;;;;;;10.03;7.90;;;7.20;99.90;;;;;;5093294;28;20199;-60
2022/09/21 01:52:49;;;;;;;8.90;7.77;;;7.20;99.90;;;;;;5093066;28;20580;-60
2022/09/21 01:55:27;;;;;;;9.43;8.40;;;7.20;99.90;;;;;;5092225;28;20207;-60
2022/09/21 01:57:59;;;;;;;8.70;7.77;;;7.20;99.90;;;;;;5085137;28;20294;-60
2022/09/21 02:00:32;;;;;;;10.53;8.27;;;7.20;99.90;;;;;;5072682;28;20586;-60
2022/09/21 02:03:05;;;;;;;9.53;8.23;;;7.20;99.90;;;;;;5072292;28;20578;-60
2022/09/21 02:05:35;;;;;;;10.50;7.73;;;7.20;99.90;;;;;;5072837;28;20259;-59
2022/09/21 02:08:06;;;;;;;10.00;7.33;;;7.20;99.90;;;;;;5080386;28;20194;-60
2022/09/21 02:10:38;;;;;;;10.77;7.90;;;7.10;99.90;;;;;;5093686;28;20447;-60
2022/09/21 02:13:07;;;;;;;9.83;7.83;;;7.10;99.90;;;;;;5096636;28;20207;-61
2022/09/21 02:15:50;;;;;;;11.93;7.60;;;7.10;99.90;;;;;;5086674;28;20654;-60
2022/09/21 02:18:28;;;;;;;8.77;7.57;;;7.00;99.90;;;;;;5076259;28;20207;-60
2022/09/21 02:21:03;;;;;;;10.70;8.17;;;7.00;99.90;;;;;;5080268;28;20194;-60
2022/09/21 02:23:42;;;;;;;8.73;7.57;;;6.90;99.90;;;;;;5095551;28;20225;-60
2022/09/21 02:26:15;;;;;;;9.00;8.07;;;6.90;99.90;;;;;;5096777;28;20601;-60
2022/09/21 02:28:52;;;;;;;11.73;8.03;;;6.90;99.90;;;;;;5096408;28;20654;-60
2022/09/21 02:31:31;;;;;;;10.10;7.93;;;6.90;99.90;;;;;;5095328;28;20190;-60
2022/09/21 02:34:06;;;;;;;12.40;8.00;;;6.90;99.90;;;;;;5084239;28;20224;-59
2022/09/21 02:36:44;;;;;;;9.53;8.27;;;6.80;99.90;;;;;;5075049;28;20188;-59
2022/09/21 02:39:19;;;;;;;12.20;8.10;;;6.90;99.90;;;;;;5076085;28;20195;-60
2022/09/21 02:42:00;;;;;;;13.70;8.80;;;6.90;99.90;;;;;;5076211;28;20191;-59
2022/09/21 02:44:32;;;;;;;12.00;8.73;;;6.90;99.90;;;;;;5075027;28;20188;-60
2022/09/21 02:47:09;;;;;;;11.47;8.20;;;6.90;99.90;;;;;;5075798;28;20188;-60
2022/09/21 02:49:43;;;;;;;10.03;8.30;;;6.90;99.90;;;;;;5074404;28;20254;-60
2022/09/21 02:52:14;;;;;;;11.83;8.10;;;6.90;99.90;;;;;;5075472;28;20207;-60
2022/09/21 02:54:47;;;;;;;11.87;8.47;;;6.90;99.90;;;;;;5075921;28;20212;-60
2022/09/21 02:57:18;;;;;;;11.57;8.50;;;6.90;99.90;;;;;;5075618;28;20735;-60
2022/09/21 02:59:47;;;;;;;8.17;7.40;;;6.90;99.90;;;;;;5074934;28;20643;-60
2022/09/21 03:02:16;;;;;;;11.50;8.37;;;6.90;99.90;;;;;;5057958;28;20200;-60
2022/09/21 03:04:47;;;;;;;13.00;7.73;;;6.80;99.90;;;;;;5055828;28;20192;-60
2022/09/21 03:07:16;;;;;;;12.73;8.10;;;6.90;99.90;;;;;;5069092;28;20192;-60
2022/09/21 03:09:45;;;;;;;10.97;8.33;;;6.90;99.90;;;;;;5075453;28;20192;-60
2022/09/21 03:12:13;;;;;;;10.80;7.90;;;6.90;99.90;;;;;;5090537;28;20198;-60
2022/09/21 03:14:42;;;;;;;8.13;7.30;;;6.80;99.90;;;;;;5063905;28;20212;-60
2022/09/21 03:17:10;;;;;;;9.80;6.93;;;6.80;99.90;;;;;;5075413;28;20216;-60
2022/09/21 03:19:40;;;;;;;10.23;7.63;;;6.80;99.90;;;;;;5075114;28;20196;-60
2022/09/21 03:22:08;;;;;;;11.87;7.70;;;6.80;99.90;;;;;;5074165;28;20207;-60
2022/09/21 03:24:45;;;;;;;10.57;7.93;;;6.80;99.90;;;;;;5081846;28;20579;-59
2022/09/21 03:27:17;;;;;;;10.07;7.40;;;6.80;99.90;;;;;;5095357;28;20195;-60
2022/09/21 03:29:46;;;;;;;8.93;7.97;;;6.80;99.90;;;;;;5095238;28;20195;-60
2022/09/21 03:32:15;;;;;;;9.07;8.10;;;6.70;99.90;;;;;;5094193;28;20215;-60
2022/09/21 03:34:44;;;;;;;9.57;7.87;;;6.80;99.90;;;;;;5095398;28;20526;-60
2022/09/21 03:37:13;;;;;;;8.60;7.67;;;6.80;99.90;;;;;;5095323;28;20550;-60
2022/09/21 03:39:41;;;;;;;9.80;8.23;;;6.80;99.90;;;;;;5095321;28;20191;-60
2022/09/21 03:42:10;;;;;;;11.90;7.70;;;6.70;99.90;;;;;;5095038;28;20697;-60
2022/09/21 03:44:40;;;;;;;13.23;7.93;;;6.70;99.90;;;;;;5094873;28;20662;-60
2022/09/21 03:47:08;;;;;;;9.67;7.77;;;6.70;99.90;;;;;;5095284;28;20274;-60
2022/09/21 03:49:37;;;;;;;13.13;7.90;;;6.70;99.90;;;;;;5081781;28;20226;-60
2022/09/21 03:52:08;;;;;;;12.83;7.97;;;6.60;99.90;;;;;;5074477;28;20207;-60
2022/09/21 03:54:37;;;;;;;13.33;8.23;;;6.60;99.90;;;;;;5073684;28;20724;-60
2022/09/21 03:57:06;;;;;;;10.37;7.70;;;6.60;99.90;;;;;;5074455;28;20220;-62
2022/09/21 03:59:34;;;;;;;9.10;7.30;;;6.60;99.90;;;;;;5074418;28;20219;-62
2022/09/21 04:02:03;;;;;;;16.33;8.07;;;6.60;99.90;;;;;;5074341;28;20192;-59
2022/09/21 04:04:56;;;;;;;13.77;7.97;;;6.60;99.90;;;;;;5072703;28;20188;-60
2022/09/21 04:07:26;;;;;;;10.80;7.80;;;6.60;99.90;;;;;;5074550;28;20218;-60
2022/09/21 04:09:54;;;;;;;9.67;7.50;;;6.60;99.90;;;;;;5073241;28;20192;-60
2022/09/21 04:12:22;;;;;;;11.60;7.67;;;6.60;99.90;;;;;;5073145;28;20543;-60
2022/09/21 04:14:51;;;;;;;10.13;8.03;;;6.60;99.90;;;;;;5074322;28;20567;-60
2022/09/21 04:17:19;;;;;;;10.87;8.80;;;6.50;99.90;;;;;;5072983;28;20290;-59
2022/09/21 04:19:48;;;;;;;15.60;9.20;;;6.50;99.90;;;;;;5061045;28;20196;-60
2022/09/21 04:22:17;;;;;;;12.40;8.90;;;6.60;99.90;;;;;;5089097;28;20188;-60
2022/09/21 04:24:47;;;;;;;12.17;8.50;;;6.60;99.90;;;;;;5063021;28;20195;-60
2022/09/21 04:27:15;;;;;;;10.93;8.20;;;6.60;99.90;;;;;;5054015;28;20188;-59
2022/09/21 04:29:43;;;;;;;11.77;8.70;;;6.50;99.90;;;;;;5066826;28;20202;-61
2022/09/21 04:32:12;;;;;;;15.90;9.13;;;6.50;99.90;;;;;;5072594;28;20738;-60
2022/09/21 04:34:40;;;;;;;15.07;9.10;;;6.50;99.90;;;;;;5052904;28;20213;-60
2022/09/21 04:37:10;;;;;;;12.87;9.33;;;6.60;99.90;;;;;;5054034;28;20200;-60
2022/09/21 04:39:39;;;;;;;12.70;8.63;;;6.60;99.90;;;;;;5059166;28;20199;-60
2022/09/21 04:42:10;;;;;;;12.37;9.10;;;6.60;99.90;;;;;;5072715;28;20192;-60
2022/09/21 04:44:38;;;;;;;17.03;10.00;;;6.60;99.90;;;;;;5074090;28;20211;-60
2022/09/21 04:47:07;;;;;;;13.93;9.67;;;6.60;99.90;;;;;;5055182;28;20266;-60
2022/09/21 04:49:35;;;;;;;13.97;9.57;;;6.60;99.90;;;;;;5053394;28;20189;-60
2022/09/21 04:52:04;;;;;;;13.63;9.27;;;6.60;99.90;;;;;;5054183;28;20247;-60
2022/09/21 04:54:32;;;;;;;13.70;9.40;;;6.50;99.90;;;;;;5080744;28;20216;-60
2022/09/21 04:57:01;;;;;;;19.93;9.87;;;6.50;99.90;;;;;;5087089;28;20227;-60
2022/09/21 04:59:31;;;;;;;14.77;10.27;;;6.50;99.90;;;;;;5073035;28;20211;-60
2022/09/21 05:01:59;;;;;;;15.43;9.83;;;6.60;99.90;;;;;;5073506;28;20196;-60
2022/09/21 05:04:28;;;;;;;18.87;10.37;;;6.60;99.90;;;;;;5073469;28;20192;-60
2022/09/21 05:06:58;;;;;;;14.57;9.50;;;6.50;99.90;;;;;;5073378;28;20192;-61
2022/09/21 05:12:12;;;;;;;14.03;10.00;;;6.50;99.90;;;;;;5058299;28;20211;-60
2022/09/21 05:14:43;;;;;;;14.17;9.90;;;6.50;99.90;;;;;;5072829;28;20196;-61
2022/09/21 05:17:13;;;;;;;14.20;10.47;;;6.50;99.90;;;;;;5072017;28;20585;-60
2022/09/21 05:19:41;;;;;;;15.77;10.47;;;6.50;99.90;;;;;;5073009;28;20203;-60
2022/09/21 05:22:10;;;;;;;13.60;9.73;;;6.50;99.90;;;;;;5078527;28;20191;-60
2022/09/21 05:24:38;;;;;;;15.37;10.83;;;6.50;99.90;;;;;;5052943;28;20724;-60
2022/09/21 05:27:07;;;;;;;15.20;10.33;;;6.50;99.90;;;;;;5052658;28;20199;-60
2022/09/21 05:29:36;;;;;;;15.73;10.93;;;6.40;99.90;;;;;;5059863;28;20552;-60
2022/09/21 05:32:08;;;;;;;17.37;11.03;;;6.50;99.90;;;;;;5073054;28;20194;-60
2022/09/21 05:34:46;;;;;;;17.70;12.03;;;6.50;99.90;;;;;;5089205;28;20233;-59
2022/09/21 05:37:33;;;;;;;17.40;11.33;;;6.50;99.90;;;;;;5093256;28;20197;-60
2022/09/21 05:40:02;;;;;;;18.63;10.83;;;6.50;99.90;;;;;;5083105;28;20646;-61
2022/09/21 05:42:30;;;;;;;17.53;10.33;;;6.60;99.90;;;;;;5072934;28;20203;-60
2022/09/21 05:44:59;;;;;;;16.80;11.50;;;6.60;99.90;;;;;;5071590;28;20195;-60
2022/09/21 05:47:38;;;;;;;17.97;11.23;;;6.60;99.90;;;;;;5077058;28;20200;-60
2022/09/21 05:50:19;;;;;;;18.87;11.60;;;6.60;99.90;;;;;;5065284;28;20193;-60
2022/09/21 05:52:54;;;;;;;17.90;10.07;;;6.60;99.90;;;;;;5056684;28;20201;-60
2022/09/21 05:55:29;;;;;;;18.63;10.30;;;6.70;99.90;;;;;;5099832;28;20220;-60
2022/09/21 05:58:07;;;;;;;15.90;11.73;;;6.70;99.90;;;;;;5068646;28;20246;-60
2022/09/21 06:00:43;;;;;;;17.60;11.83;;;6.70;99.90;;;;;;5057665;28;20247;-60
2022/09/21 06:03:28;;;;;;;20.63;11.47;;;6.80;99.90;;;;;;5056767;28;20212;-60
2022/09/21 06:05:56;;;;;;;17.27;10.87;;;6.80;99.90;;;;;;5070205;28;20226;-60
2022/09/21 06:08:25;;;;;;;22.20;10.87;;;6.80;99.90;;;;;;5076852;28;20188;-60
2022/09/21 06:10:54;;;;;;;16.27;10.43;;;6.80;99.90;;;;;;5076898;28;20193;-60
2022/09/21 06:13:23;;;;;;;14.83;10.63;;;6.90;99.90;;;;;;5076185;28;20200;-60
2022/09/21 06:15:51;;;;;;;22.90;11.73;;;6.90;99.90;;;;;;5074940;28;20562;-60
2022/09/21 06:18:21;;;;;;;19.17;11.03;;;6.90;99.90;;;;;;5075001;28;20192;-60
2022/09/21 06:20:49;;;;;;;18.27;12.53;;;7.00;99.90;;;;;;5075808;28;20200;-60
2022/09/21 06:23:17;;;;;;;23.30;14.43;;;7.10;99.90;;;;;;5075739;28;20207;-60
2022/09/21 06:25:51;;;;;;;22.63;13.17;;;7.10;99.90;;;;;;5076353;28;20189;-60
2022/09/21 06:28:26;;;;;;;25.70;12.83;;;7.20;99.90;;;;;;5076177;28;20196;-61
2022/09/21 06:30:56;;;;;;;21.00;13.27;;;7.30;99.90;;;;;;5076003;28;20210;-60
2022/09/21 06:33:27;;;;;;;25.47;13.90;;;7.30;99.90;;;;;;5075988;28;20197;-59
2022/09/21 06:35:58;;;;;;;22.93;13.27;;;7.40;99.90;;;;;;5077014;28;20234;-60
2022/09/21 06:38:28;;;;;;;21.97;13.47;;;7.50;99.90;;;;;;5076065;28;20291;-60
2022/09/21 06:41:02;;;;;;;24.53;13.63;;;7.50;99.90;;;;;;5074790;28;20195;-59
2022/09/21 06:43:30;;;;;;;23.30;13.73;;;7.60;99.90;;;;;;5076256;28;20192;-59
2022/09/21 06:46:00;;;;;;;23.87;13.57;;;7.70;99.90;;;;;;5075661;28;20201;-59
2022/09/21 06:48:32;;;;;;;27.30;14.40;;;7.80;99.90;;;;;;5075767;28;20551;-60
2022/09/21 06:51:04;;;;;;;28.80;14.53;;;7.90;99.90;;;;;;5075466;28;20200;-60
2022/09/21 06:53:33;;;;;;;23.30;13.33;;;8.10;99.90;;;;;;5071230;28;20197;-60
2022/09/21 06:56:02;;;;;;;24.27;16.27;;;8.20;99.90;;;;;;5070634;28;20228;-59
2022/09/21 06:58:33;;;;;;;24.83;16.30;;;8.40;99.90;;;;;;5055527;28;20636;-60
2022/09/21 07:01:07;;;;;;;25.83;14.83;;;8.60;99.90;;;;;;5054383;28;20283;-60
2022/09/21 07:03:38;;;;;;;23.07;15.63;;;8.80;99.90;;;;;;5054569;28;20512;-60
2022/09/21 07:06:09;;;;;;;25.83;15.87;;;8.90;99.90;;;;;;5055518;28;20196;-60
2022/09/21 07:08:38;;;;;;;24.23;15.97;;;9.10;99.90;;;;;;5055508;28;20555;-60
2022/09/21 07:11:27;;;;;;;24.93;17.67;;;9.30;99.90;;;;;;5055554;28;20197;-60
2022/09/21 07:13:57;;;;;;;23.80;15.37;;;9.50;99.90;;;;;;5055468;28;20648;-60
2022/09/21 07:16:25;;;;;;;20.30;14.63;;;9.50;99.90;;;;;;5087508;28;20208;-60
2022/09/21 07:18:55;;;;;;;21.80;14.80;;;9.60;99.90;;;;;;5054257;28;20250;-60
2022/09/21 07:22:19;;;;;;;23.83;15.23;;;9.80;99.90;;;;;;5055492;28;20254;-60
2022/09/21 07:24:53;;;;;;;21.60;14.43;;;9.90;99.90;;;;;;5055697;28;20197;-60
2022/09/21 07:27:22;;;;;;;17.53;13.70;;;10.10;99.90;;;;;;5070421;28;20267;-60
2022/09/21 07:29:50;;;;;;;18.33;14.10;;;10.20;99.90;;;;;;5075481;28;20572;-60
2022/09/21 07:32:21;;;;;;;23.40;14.83;;;10.50;99.90;;;;;;5075013;28;20674;-60
2022/09/21 07:34:53;;;;;;;20.63;14.03;;;10.70;99.90;;;;;;5074851;28;20536;-61
2022/09/21 07:37:22;;;;;;;18.83;13.70;;;10.90;99.90;;;;;;5074887;28;20208;-60
2022/09/21 07:39:52;;;;;;;21.77;13.80;;;11.10;99.90;;;;;;5075071;28;20595;-61
2022/09/21 07:42:23;;;;;;;22.73;13.60;;;11.30;99.90;;;;;;5075152;28;20539;-60
2022/09/21 07:44:52;;;;;;;25.00;13.47;;;11.50;99.90;;;;;;5075124;28;20196;-60
2022/09/21 07:48:02;;;;;;;18.67;13.83;;;11.70;99.90;;;;;;5074548;28;20294;-60
2022/09/21 07:50:33;;;;;;;23.53;12.97;;;11.90;99.90;;;;;;5073502;28;20647;-60
2022/09/21 07:53:03;;;;;;;19.13;12.70;;;12.00;99.90;;;;;;5073325;28;20184;-60
2022/09/21 07:55:32;;;;;;;25.87;13.60;;;12.10;99.90;;;;;;5074460;28;20269;-61
2022/09/21 08:00:49;;;;;;;18.87;12.83;;;12.40;99.90;;;;;;5074826;28;20192;-60
2022/09/21 08:03:17;;;;;;;17.70;12.13;;;12.50;99.90;;;;;;5053540;28;20189;-60
2022/09/21 08:05:47;;;;;;;20.73;13.13;;;12.70;99.90;;;;;;5053529;28;20203;-60
2022/09/21 08:08:15;;;;;;;20.70;12.03;;;12.70;99.90;;;;;;5054495;28;20234;-61
2022/09/21 08:10:44;;;;;;;19.83;11.70;;;12.90;99.90;;;;;;5070450;28;20284;-61
2022/09/21 08:13:12;;;;;;;23.20;12.50;;;13.30;99.90;;;;;;5054465;28;20203;-60
2022/09/21 08:15:41;;;;;;;19.00;12.47;;;13.60;99.90;;;;;;5054137;28;20570;-60
2022/09/21 08:18:17;;;;;;;24.80;14.13;;;13.80;99.90;;;;;;5054521;28;20641;-61
2022/09/21 08:20:55;;;;;;;22.97;14.20;;;13.80;99.90;;;;;;5068605;28;20208;-61
2022/09/21 08:23:24;;;;;;;21.93;12.70;;;13.90;99.90;;;;;;5074001;28;20559;-60
2022/09/21 08:25:53;;;;;;;27.17;14.43;;;14.10;99.90;;;;;;5074092;28;20623;-61
2022/09/21 08:28:21;;;;;;;28.83;12.33;;;14.30;99.90;;;;;;5073937;28;20586;-61
2022/09/21 08:30:49;;;;;;;17.07;12.40;;;14.30;99.90;;;;;;5074027;28;20188;-61
2022/09/21 08:33:17;;;;;;;20.83;12.67;;;14.50;99.90;;;;;;5074459;28;20200;-60
2022/09/21 08:35:54;;;;;;;20.33;11.97;;;14.50;99.90;;;;;;5072697;28;20208;-60
2022/09/21 08:38:22;;;;;;;22.07;12.13;;;14.60;99.90;;;;;;5073762;28;20716;-61
2022/09/21 08:40:52;;;;;;;19.90;11.93;;;14.80;99.90;;;;;;5073789;28;20689;-60
2022/09/21 08:43:31;;;;;;;21.00;11.30;;;15.00;99.90;;;;;;5074045;28;20188;-61
2022/09/21 08:46:03;;;;;;;20.00;10.43;;;15.00;99.90;;;;;;5073506;28;20200;-61
2022/09/21 08:48:39;;;;;;;19.67;10.20;;;15.00;99.90;;;;;;5074031;28;20643;-61
2022/09/21 08:51:14;;;;;;;18.90;11.40;;;15.20;99.90;;;;;;5072296;28;20197;-61
2022/09/21 08:53:48;;;;;;;23.50;11.77;;;15.40;99.90;;;;;;5089401;28;20216;-61
2022/09/21 08:56:17;;;;;;;19.07;12.23;;;15.60;99.90;;;;;;5051957;28;20245;-60
2022/09/21 08:58:45;;;;;;;16.10;11.30;;;15.60;99.90;;;;;;5053870;28;20536;-61
2022/09/21 09:01:33;;;;;;;17.93;10.20;;;15.60;99.90;;;;;;5053953;28;20194;-61
2022/09/21 09:04:26;;;;;;;14.70;9.30;;;15.90;99.90;;;;;;5053492;28;20197;-60
2022/09/21 09:07:06;;;;;;;15.03;9.43;;;16.10;99.90;;;;;;5052253;28;20191;-61
2022/09/21 09:10:03;;;;;;;12.97;8.23;;;16.00;99.90;;;;;;5054010;28;20192;-60
2022/09/21 09:12:46;;;;;;;15.27;8.20;;;16.10;99.90;;;;;;5051900;28;20234;-61
2022/09/21 09:15:37;;;;;;;13.03;9.20;;;16.30;99.90;;;;;;5053369;28;20220;-60
2022/09/21 09:18:11;;;;;;;17.13;9.77;;;16.50;99.90;;;;;;5051845;28;20274;-61
2022/09/21 09:20:43;;;;;;;14.57;9.27;;;16.60;99.90;;;;;;5065684;28;20208;-61
2022/09/21 09:23:18;;;;;;;14.23;8.60;;;16.70;99.90;;;;;;5073203;28;20676;-62
2022/09/21 09:25:53;;;;;;;14.17;8.73;;;16.70;99.90;;;;;;5073237;28;20214;-60
2022/09/21 09:28:29;;;;;;;17.63;9.20;;;16.80;99.90;;;;;;5073690;28;20653;-61
2022/09/21 09:31:01;;;;;;;17.37;8.87;;;16.90;99.90;;;;;;5073273;28;20198;-61
2022/09/21 09:33:43;;;;;;;14.97;9.20;;;16.80;99.90;;;;;;5073792;28;20194;-62
2022/09/21 09:36:13;;;;;;;17.20;9.17;;;16.90;99.90;;;;;;5073346;28;20200;-61
2022/09/21 09:38:50;;;;;;;13.77;6.90;;;17.20;99.90;;;;;;5073639;28;20208;-61
2022/09/21 09:41:40;;;;;;;10.47;6.17;;;17.20;99.90;;;;;;5073013;28;20277;-61
2022/09/21 09:44:25;;;;;;;7.87;4.53;;;17.20;99.90;;;;;;5073294;28;20176;-61
2022/09/21 09:47:01;;;;;;;11.83;5.20;;;17.40;99.90;;;;;;5073080;28;20202;-60
2022/09/21 09:49:39;;;;;;;11.17;6.27;;;17.40;99.90;;;;;;5073105;28;20199;-61
2022/09/21 09:52:11;;;;;;;8.43;5.00;;;17.50;99.90;;;;;;5072925;28;20195;-60
2022/09/21 09:54:41;;;;;;;8.33;5.13;;;17.60;99.90;;;;;;5072717;28;20206;-61
2022/09/21 09:57:10;;;;;;;6.73;5.10;;;17.80;99.90;;;;;;5071302;28;20231;-61
2022/09/21 09:59:43;;;;;;;12.63;5.63;;;17.80;99.90;;;;;;5072815;28;20192;-61
2022/09/21 10:02:20;;;;;;;11.33;5.13;;;17.90;99.90;;;;;;5072153;28;20192;-61
2022/09/21 10:05:32;;;;;;;3.60;3.30;;;18.00;99.90;;;;;;5073243;28;20757;-61
2022/09/21 10:08:02;;;;;;;4.97;3.07;;;18.20;99.90;;;;;;5071741;28;20183;-61
2022/09/21 10:10:35;;;;;;;3.90;3.00;;;18.40;99.90;;;;;;5072825;28;20215;-60
2022/09/21 10:13:11;;;;;;;6.77;3.50;;;18.50;99.90;;;;;;5072750;28;20668;-61
2022/09/21 10:15:44;;;;;;;5.20;3.40;;;18.60;99.90;;;;;;5072779;28;20195;-61
2022/09/21 10:18:19;;;;;;;9.30;3.90;;;18.50;99.90;;;;;;5071510;28;20243;-61
2022/09/21 10:20:59;;;;;;;5.63;3.73;;;18.40;99.90;;;;;;5072615;28;20523;-61
2022/09/21 10:23:30;;;;;;;8.10;3.53;;;18.10;99.90;;;;;;5072813;28;20188;-61
2022/09/21 10:26:07;;;;;;;4.10;3.50;;;17.90;99.90;;;;;;5071546;28;20715;-61
2022/09/21 10:28:37;;;;;;;5.37;3.50;;;17.90;99.90;;;;;;5072249;28;20192;-61
2022/09/21 10:31:17;;;;;;;4.87;3.37;;;17.80;99.90;;;;;;5072652;28;20187;-62
2022/09/21 10:33:52;;;;;;;3.03;2.70;;;17.70;99.90;;;;;;5076059;28;20191;-61
2022/09/21 10:36:32;;;;;;;2.53;2.30;;;17.80;99.90;;;;;;5076216;28;20670;-61
2022/09/21 10:39:19;;;;;;;3.97;2.63;;;17.70;99.90;;;;;;5076408;28;20219;-61
2022/09/21 10:41:56;;;;;;;3.87;2.50;;;17.90;99.90;;;;;;5075794;28;20195;-61
2022/09/21 10:44:29;;;;;;;2.57;2.37;;;18.30;99.90;;;;;;5076032;28;20192;-61
2022/09/21 10:47:02;;;;;;;3.97;1.97;;;18.80;99.90;;;;;;5076065;28;20203;-62
2022/09/21 10:49:31;;;;;;;2.67;1.60;;;19.20;99.90;;;;;;5075958;28;20207;-61
2022/09/21 10:52:01;;;;;;;3.83;2.00;;;18.90;99.90;;;;;;5075766;28;20189;-61
2022/09/21 10:54:32;;;;;;;2.57;1.93;;;18.60;99.90;;;;;;5076120;28;20196;-61
2022/09/21 10:57:55;;;;;;;6.10;1.70;;;18.60;99.90;;;;;;5075757;28;20236;-61
2022/09/21 11:00:34;;;;;;;10.33;2.87;;;18.20;99.90;;;;;;5074417;28;20199;-61
2022/09/21 11:03:22;;;;;;;2.90;2.10;;;17.90;99.90;;;;;;5082141;28;20207;-61
2022/09/21 11:05:53;;;;;;;7.10;2.20;;;18.30;99.90;;;;;;5095919;28;20233;-62
2022/09/21 11:08:30;;;;;;;4.70;1.70;;;18.70;99.90;;;;;;5095929;28;20203;-61
2022/09/21 11:15:40;;;;;;;2.47;1.27;;;19.40;99.90;;;;;;5055058;28;20267;-60
2022/09/21 11:22:50;;;;;;;2.40;1.63;;;18.80;99.90;;;;;;5095621;28;20175;-61
2022/09/21 11:25:37;;;;;;;5.20;1.77;;;18.60;99.90;;;;;;5095448;28;20194;-62
2022/09/21 11:32:56;;;;;;;4.90;2.00;;;20.10;99.90;;;;;;5095409;28;20262;-61
2022/09/21 11:35:47;;;;;;;6.27;1.90;;;20.90;99.90;;;;;;5095182;28;20204;-61
2022/09/21 11:38:29;;;;;;;4.77;2.00;;;20.70;99.90;;;;;;5094764;28;20287;-61
2022/09/21 11:41:22;;;;;;;1.83;1.60;;;20.10;99.90;;;;;;5093617;28;20675;-61
2022/09/21 11:48:48;;;;;;;1.60;1.20;;;19.90;99.90;;;;;;5095028;28;20543;-61
2022/09/21 11:56:25;;;;;;;1.20;1.10;;;20.90;99.90;;;;;;5092107;28;20288;-61
2022/09/21 12:03:02;;;;;;;4.00;1.40;;;21.60;99.90;;;;;;5082004;28;20669;-61
2022/09/21 12:05:36;;;;;;;1.80;1.33;;;21.80;99.90;;;;;;5073975;28;20204;-61
2022/09/21 12:08:48;;;;;;;2.73;1.30;;;21.80;99.90;;;;;;5072873;28;20196;-60
2022/09/21 12:11:28;;;;;;;2.53;1.43;;;21.80;99.90;;;;;;5054660;28;20201;-61
2022/09/21 12:18:28;;;;;;;1.23;1.20;;;21.60;99.90;;;;;;5056451;28;20212;-60
2022/09/21 12:25:40;;;;;;;3.13;1.60;;;21.40;99.90;;;;;;5073685;28;20160;-60
2022/09/21 12:28:39;;;;;;;4.30;1.30;;;21.00;99.90;;;;;;5073042;28;20284;-61
2022/09/21 12:35:04;;;;;;;2.57;1.40;;;21.40;99.90;;;;;;5087894;28;20204;-60
2022/09/21 12:42:27;;;;;;;5.27;1.30;;;21.70;99.90;;;;;;5071879;28;20190;-60
2022/09/21 12:49:43;;;;;;;2.47;1.47;;;22.20;99.90;;;;;;5073195;28;20172;-60
2022/09/21 12:52:18;;;;;;;3.63;1.43;;;21.80;99.90;;;;;;5072197;28;20271;-61
2022/09/21 12:55:27;;;;;;;1.60;1.50;;;21.40;99.90;;;;;;5052315;28;20237;-60
2022/09/21 12:58:06;;;;;;;2.20;1.50;;;20.80;99.90;;;;;;5051827;28;20812;-61
2022/09/21 13:01:25;;;;;;;3.77;1.60;;;20.40;99.90;;;;;;5053646;28;20216;-60
2022/09/21 13:04:12;;;;;;;2.67;1.50;;;20.10;99.90;;;;;;5053140;28;20975;-61
2022/09/21 13:07:24;;;;;;;3.63;1.50;;;19.80;99.90;;;;;;5058730;28;20196;-61
2022/09/21 13:09:55;;;;;;;6.63;1.40;;;19.60;99.90;;;;;;5072914;28;20188;-60
2022/09/21 13:13:01;;;;;;;2.00;1.47;;;19.50;99.90;;;;;;5071688;28;20196;-61
2022/09/21 13:15:41;;;;;;;4.53;1.60;;;19.40;99.90;;;;;;5071799;28;20662;-61
2022/09/21 13:22:40;;;;;;;1.40;1.30;;;19.30;99.90;;;;;;5090508;28;20180;-60
2022/09/21 13:25:22;;;;;;;2.50;1.53;;;19.20;99.90;;;;;;5072661;28;20282;-61
2022/09/21 13:28:30;;;;;;;2.30;1.20;;;19.10;99.90;;;;;;5072516;28;20206;-60
2022/09/21 13:31:42;;;;;;;2.77;1.47;;;19.10;99.90;;;;;;5072705;28;20546;-61
2022/09/21 13:42:45;;;;;;;1.57;1.40;;;19.40;99.90;;;;;;5052700;28;20244;-60
2022/09/21 13:50:03;;;;;;;1.43;1.30;;;20.00;99.90;;;;;;5072327;28;20211;-60
2022/09/21 13:52:54;;;;;;;1.80;1.40;;;20.20;99.90;;;;;;5073035;28;20199;-60
2022/09/21 14:00:06;;;;;;;3.80;1.30;;;20.60;99.90;;;;;;5027747;28;20288;-60
2022/09/21 14:02:39;;;;;;;1.87;1.30;;;20.90;99.90;;;;;;5011514;28;20201;-61
2022/09/21 14:05:46;;;;;;;4.27;1.40;;;21.10;99.90;;;;;;5012910;28;20222;-60
2022/09/21 14:08:29;;;;;;;1.77;1.30;;;21.20;99.90;;;;;;5016563;28;20244;-60
2022/09/21 14:15:31;;;;;;;2.77;1.50;;;21.40;99.90;;;;;;5068295;28;20173;-61
2022/09/21 14:18:37;;;;;;;3.97;1.30;;;21.50;99.90;;;;;;5034728;28;20189;-60
2022/09/21 14:25:39;;;;;;;4.70;1.50;;;21.80;99.90;;;;;;5036214;28;20188;-60
2022/09/21 14:28:13;;;;;;;3.00;1.50;;;22.00;99.90;;;;;;5014890;28;20217;-61
2022/09/21 14:44:16;;;;;;;2.87;1.40;;;22.10;99.90;;;;;;5016149;28;20158;-60
2022/09/21 14:47:15;;;;;;;1.60;1.17;;;21.60;99.90;;;;;;5015690;28;20285;-60
2022/09/21 14:50:03;;;;;;;3.00;1.30;;;21.10;99.90;;;;;;5015647;28;20194;-60
2022/09/21 14:52:45;;;;;;;1.40;1.20;;;20.60;99.90;;;;;;5014361;28;20230;-60
2022/09/21 14:55:20;;;;;;;2.17;1.20;;;20.10;99.90;;;;;;5015379;28;20214;-60
2022/09/21 14:58:20;;;;;;;2.30;1.30;;;19.80;99.90;;;;;;5031737;28;20215;-60
2022/09/21 15:04:44;;;;;;;3.20;1.43;;;19.30;99.90;;;;;;5055216;28;20195;-60
2022/09/21 15:10:57;;;;;;;1.50;1.50;;;19.20;99.90;;;;;;5074884;28;20188;-60
2022/09/21 15:16:56;;;;;;;4.50;1.37;;;20.30;99.90;;;;;;5054734;28;20197;-60
2022/09/21 15:24:30;;;;;;;2.37;1.20;;;21.20;99.90;;;;;;5055002;28;20176;-60
2022/09/21 15:38:51;;;;;;;1.10;1.03;;;21.80;99.90;;;;;;5074440;28;20189;-60
2022/09/21 15:42:16;;;;;;;2.13;1.30;;;21.80;99.90;;;;;;5073451;28;20324;-60